sensor_id;sensor_type;location;lat;lon;timestamp;temperature;humidity
75821;DHT22;64454;51.984;9.838;2023-06-14T00:01:03;20.20;1.00
75821;DHT22;64454;51.984;9.838;2023-06-14T00:03:31;20.10;1.00
75821;DHT22;64454;51.984;9.838;2023-06-14T00:05:58;20.00;1.00
75821;DHT22;64454;51.984;9.838;2023-06-14T00:08:25;20.00;1.00
75821;DHT22;64454;51.984;9.838;2023-06-14T00:10:53;20.00;1.00
75821;DHT22;64454;51.984;9.838;2023-06-14T00:13:20;20.00;1.00
75821;DHT22;64454;51.984;9.838;2023-06-14T00:15:47;19.90;1.00
75821;DHT22;64454;51.984;9.838;2023-06-14T00:18:14;19.80;1.00
75821;DHT22;64454;51.984;9.838;2023-06-14T00:20:41;19.70;1.00
75821;DHT22;64454;51.984;9.838;2023-06-14T00:23:08;19.60;1.00
75821;DHT22;64454;51.984;9.838;2023-06-14T00:25:35;19.60;1.00
75821;DHT22;64454;51.984;9.838;2023-06-14T00:28:04;19.60;1.00
75821;DHT22;64454;51.984;9.838;2023-06-14T00:30:30;19.60;1.00
75821;DHT22;64454;51.984;9.838;2023-06-14T00:32:57;19.60;1.00
75821;DHT22;64454;51.984;9.838;2023-06-14T00:35:24;19.60;1.00
75821;DHT22;64454;51.984;9.838;2023-06-14T00:37:51;19.50;1.00
75821;DHT22;64454;51.984;9.838;2023-06-14T00:40:20;19.50;1.00
75821;DHT22;64454;51.984;9.838;2023-06-14T00:42:47;19.60;1.00
75821;DHT22;64454;51.984;9.838;2023-06-14T00:45:16;19.60;1.00
75821;DHT22;64454;51.984;9.838;2023-06-14T00:47:43;19.50;1.00
75821;DHT22;64454;51.984;9.838;2023-06-14T00:50:12;19.50;1.00
75821;DHT22;64454;51.984;9.838;2023-06-14T00:52:39;19.50;1.00
75821;DHT22;64454;51.984;9.838;2023-06-14T00:55:07;19.50;1.00
75821;DHT22;64454;51.984;9.838;2023-06-14T00:57:34;19.40;1.00
75821;DHT22;64454;51.984;9.838;2023-06-14T01:00:03;19.40;1.00
75821;DHT22;64454;51.984;9.838;2023-06-14T01:02:36;19.40;1.00
75821;DHT22;64454;51.984;9.838;2023-06-14T01:05:03;19.40;1.00
75821;DHT22;64454;51.984;9.838;2023-06-14T01:07:37;19.30;1.00
75821;DHT22;64454;51.984;9.838;2023-06-14T01:10:26;19.30;1.00
75821;DHT22;64454;51.984;9.838;2023-06-14T01:13:05;19.30;1.00
75821;DHT22;64454;51.984;9.838;2023-06-14T01:15:36;19.20;1.00
75821;DHT22;64454;51.984;9.838;2023-06-14T01:18:05;19.20;1.00
75821;DHT22;64454;51.984;9.838;2023-06-14T01:20:33;19.10;1.00
75821;DHT22;64454;51.984;9.838;2023-06-14T01:23:03;19.00;1.00
75821;DHT22;64454;51.984;9.838;2023-06-14T01:25:30;19.00;1.00
75821;DHT22;64454;51.984;9.838;2023-06-14T01:27:59;19.00;1.00
75821;DHT22;64454;51.984;9.838;2023-06-14T01:30:28;19.00;1.00
75821;DHT22;64454;51.984;9.838;2023-06-14T01:32:58;19.00;1.00
75821;DHT22;64454;51.984;9.838;2023-06-14T01:35:26;19.00;1.00
75821;DHT22;64454;51.984;9.838;2023-06-14T01:37:53;19.00;1.00
75821;DHT22;64454;51.984;9.838;2023-06-14T01:40:22;18.90;1.00
75821;DHT22;64454;51.984;9.838;2023-06-14T01:42:50;18.80;1.00
75821;DHT22;64454;51.984;9.838;2023-06-14T01:45:19;18.70;1.00
75821;DHT22;64454;51.984;9.838;2023-06-14T01:47:47;18.50;1.00
75821;DHT22;64454;51.984;9.838;2023-06-14T01:50:15;18.60;1.00
75821;DHT22;64454;51.984;9.838;2023-06-14T01:52:42;18.50;1.00
75821;DHT22;64454;51.984;9.838;2023-06-14T01:55:09;18.40;1.00
75821;DHT22;64454;51.984;9.838;2023-06-14T01:57:38;18.40;1.00
75821;DHT22;64454;51.984;9.838;2023-06-14T02:00:06;18.30;1.00
75821;DHT22;64454;51.984;9.838;2023-06-14T02:02:38;18.20;1.00
75821;DHT22;64454;51.984;9.838;2023-06-14T02:05:05;18.30;1.00
75821;DHT22;64454;51.984;9.838;2023-06-14T02:07:33;18.20;1.00
75821;DHT22;64454;51.984;9.838;2023-06-14T02:09:59;18.20;1.00
75821;DHT22;64454;51.984;9.838;2023-06-14T02:12:26;18.20;1.00
75821;DHT22;64454;51.984;9.838;2023-06-14T02:14:54;18.10;1.00
75821;DHT22;64454;51.984;9.838;2023-06-14T02:17:21;18.10;1.00
75821;DHT22;64454;51.984;9.838;2023-06-14T02:19:48;18.10;1.00
75821;DHT22;64454;51.984;9.838;2023-06-14T02:22:16;18.00;1.00
75821;DHT22;64454;51.984;9.838;2023-06-14T02:24:43;17.90;1.00
75821;DHT22;64454;51.984;9.838;2023-06-14T02:27:10;17.80;1.00
75821;DHT22;64454;51.984;9.838;2023-06-14T02:29:37;17.90;1.00
75821;DHT22;64454;51.984;9.838;2023-06-14T02:32:06;17.90;1.00
75821;DHT22;64454;51.984;9.838;2023-06-14T02:34:33;17.90;1.00
75821;DHT22;64454;51.984;9.838;2023-06-14T02:37:01;17.90;1.00
75821;DHT22;64454;51.984;9.838;2023-06-14T02:39:29;17.90;1.00
75821;DHT22;64454;51.984;9.838;2023-06-14T02:41:55;17.90;1.00
75821;DHT22;64454;51.984;9.838;2023-06-14T02:44:24;17.90;1.00
75821;DHT22;64454;51.984;9.838;2023-06-14T02:46:53;17.90;1.00
75821;DHT22;64454;51.984;9.838;2023-06-14T02:49:22;17.90;1.00
75821;DHT22;64454;51.984;9.838;2023-06-14T02:51:49;17.90;1.00
75821;DHT22;64454;51.984;9.838;2023-06-14T02:54:17;17.80;1.00
75821;DHT22;64454;51.984;9.838;2023-06-14T02:56:45;17.80;1.00
75821;DHT22;64454;51.984;9.838;2023-06-14T02:59:12;17.80;1.00
75821;DHT22;64454;51.984;9.838;2023-06-14T03:01:40;17.80;1.00
75821;DHT22;64454;51.984;9.838;2023-06-14T03:04:07;17.70;1.00
75821;DHT22;64454;51.984;9.838;2023-06-14T03:06:36;17.70;1.00
75821;DHT22;64454;51.984;9.838;2023-06-14T03:09:05;17.60;1.00
75821;DHT22;64454;51.984;9.838;2023-06-14T03:11:32;17.60;1.00
75821;DHT22;64454;51.984;9.838;2023-06-14T03:14:00;17.60;1.00
75821;DHT22;64454;51.984;9.838;2023-06-14T03:16:29;17.50;1.00
75821;DHT22;64454;51.984;9.838;2023-06-14T03:18:57;17.50;1.00
75821;DHT22;64454;51.984;9.838;2023-06-14T03:21:23;17.50;1.00
75821;DHT22;64454;51.984;9.838;2023-06-14T03:23:52;17.40;1.00
75821;DHT22;64454;51.984;9.838;2023-06-14T03:26:19;17.30;1.00
75821;DHT22;64454;51.984;9.838;2023-06-14T03:28:47;17.20;1.00
75821;DHT22;64454;51.984;9.838;2023-06-14T03:31:15;17.10;1.00
75821;DHT22;64454;51.984;9.838;2023-06-14T03:33:42;17.10;1.00
75821;DHT22;64454;51.984;9.838;2023-06-14T03:36:09;17.10;1.00
75821;DHT22;64454;51.984;9.838;2023-06-14T03:38:36;17.10;1.00
75821;DHT22;64454;51.984;9.838;2023-06-14T03:41:04;17.10;1.00
75821;DHT22;64454;51.984;9.838;2023-06-14T03:43:31;17.20;1.00
75821;DHT22;64454;51.984;9.838;2023-06-14T03:45:58;17.20;1.00
75821;DHT22;64454;51.984;9.838;2023-06-14T03:48:25;17.20;1.00
75821;DHT22;64454;51.984;9.838;2023-06-14T03:50:52;17.30;1.00
75821;DHT22;64454;51.984;9.838;2023-06-14T03:53:20;17.30;1.00
75821;DHT22;64454;51.984;9.838;2023-06-14T03:55:48;17.30;1.00
75821;DHT22;64454;51.984;9.838;2023-06-14T03:58:19;17.30;1.00
75821;DHT22;64454;51.984;9.838;2023-06-14T04:00:46;17.30;1.00
75821;DHT22;64454;51.984;9.838;2023-06-14T04:03:13;17.30;1.00
75821;DHT22;64454;51.984;9.838;2023-06-14T04:05:40;17.30;1.00
75821;DHT22;64454;51.984;9.838;2023-06-14T04:08:08;17.30;1.00
75821;DHT22;64454;51.984;9.838;2023-06-14T04:10:36;17.30;1.00
75821;DHT22;64454;51.984;9.838;2023-06-14T04:13:03;17.30;1.00
75821;DHT22;64454;51.984;9.838;2023-06-14T04:15:34;17.30;1.00
75821;DHT22;64454;51.984;9.838;2023-06-14T04:18:01;17.20;1.00
75821;DHT22;64454;51.984;9.838;2023-06-14T04:20:28;17.30;1.00
75821;DHT22;64454;51.984;9.838;2023-06-14T04:22:56;17.20;1.00
75821;DHT22;64454;51.984;9.838;2023-06-14T04:25:23;17.20;1.00
75821;DHT22;64454;51.984;9.838;2023-06-14T04:27:51;17.30;1.00
75821;DHT22;64454;51.984;9.838;2023-06-14T04:30:18;17.20;1.00
75821;DHT22;64454;51.984;9.838;2023-06-14T04:32:48;17.10;1.00
75821;DHT22;64454;51.984;9.838;2023-06-14T04:35:15;17.00;1.00
75821;DHT22;64454;51.984;9.838;2023-06-14T04:37:42;16.90;1.00
75821;DHT22;64454;51.984;9.838;2023-06-14T04:40:11;16.80;1.00
75821;DHT22;64454;51.984;9.838;2023-06-14T04:42:38;16.80;1.00
75821;DHT22;64454;51.984;9.838;2023-06-14T04:45:07;16.70;1.00
75821;DHT22;64454;51.984;9.838;2023-06-14T04:47:35;16.70;1.00
75821;DHT22;64454;51.984;9.838;2023-06-14T04:50:04;16.60;1.00
75821;DHT22;64454;51.984;9.838;2023-06-14T04:52:31;16.60;1.00
75821;DHT22;64454;51.984;9.838;2023-06-14T04:55:00;16.50;1.00
75821;DHT22;64454;51.984;9.838;2023-06-14T04:57:28;16.40;1.00
75821;DHT22;64454;51.984;9.838;2023-06-14T04:59:57;16.50;1.00
75821;DHT22;64454;51.984;9.838;2023-06-14T05:02:26;16.40;1.00
75821;DHT22;64454;51.984;9.838;2023-06-14T05:04:56;16.40;1.00
75821;DHT22;64454;51.984;9.838;2023-06-14T05:07:24;16.50;1.00
75821;DHT22;64454;51.984;9.838;2023-06-14T05:09:51;16.40;1.00
75821;DHT22;64454;51.984;9.838;2023-06-14T05:12:18;16.40;1.00
75821;DHT22;64454;51.984;9.838;2023-06-14T05:14:45;16.30;1.00
75821;DHT22;64454;51.984;9.838;2023-06-14T05:17:12;16.30;1.00
75821;DHT22;64454;51.984;9.838;2023-06-14T05:19:38;16.30;1.00
75821;DHT22;64454;51.984;9.838;2023-06-14T05:22:06;16.40;1.00
75821;DHT22;64454;51.984;9.838;2023-06-14T05:24:34;16.40;1.00
75821;DHT22;64454;51.984;9.838;2023-06-14T05:27:01;16.50;1.00
75821;DHT22;64454;51.984;9.838;2023-06-14T05:29:27;16.60;1.00
75821;DHT22;64454;51.984;9.838;2023-06-14T05:31:54;16.70;1.00
75821;DHT22;64454;51.984;9.838;2023-06-14T05:34:21;16.80;1.00
75821;DHT22;64454;51.984;9.838;2023-06-14T05:36:47;16.80;1.00
75821;DHT22;64454;51.984;9.838;2023-06-14T05:39:15;16.90;1.00
75821;DHT22;64454;51.984;9.838;2023-06-14T05:41:45;16.80;1.00
75821;DHT22;64454;51.984;9.838;2023-06-14T05:44:12;16.80;1.00
75821;DHT22;64454;51.984;9.838;2023-06-14T05:46:39;16.80;1.00
75821;DHT22;64454;51.984;9.838;2023-06-14T05:49:06;16.80;1.00
75821;DHT22;64454;51.984;9.838;2023-06-14T05:51:33;16.70;1.00
75821;DHT22;64454;51.984;9.838;2023-06-14T05:54:00;16.80;1.00
75821;DHT22;64454;51.984;9.838;2023-06-14T05:56:26;16.90;1.00
75821;DHT22;64454;51.984;9.838;2023-06-14T05:58:54;17.00;1.00
75821;DHT22;64454;51.984;9.838;2023-06-14T06:01:21;17.10;1.00
75821;DHT22;64454;51.984;9.838;2023-06-14T06:03:48;17.20;1.00
75821;DHT22;64454;51.984;9.838;2023-06-14T06:06:14;17.30;1.00
75821;DHT22;64454;51.984;9.838;2023-06-14T06:08:41;17.30;1.00
75821;DHT22;64454;51.984;9.838;2023-06-14T06:11:08;17.30;1.00
75821;DHT22;64454;51.984;9.838;2023-06-14T06:13:36;17.40;1.00
75821;DHT22;64454;51.984;9.838;2023-06-14T06:16:05;17.50;1.00
75821;DHT22;64454;51.984;9.838;2023-06-14T06:18:32;17.40;1.00
75821;DHT22;64454;51.984;9.838;2023-06-14T06:20:59;17.50;1.00
75821;DHT22;64454;51.984;9.838;2023-06-14T06:23:26;17.40;1.00
75821;DHT22;64454;51.984;9.838;2023-06-14T06:25:53;17.50;1.00
75821;DHT22;64454;51.984;9.838;2023-06-14T06:28:19;17.60;1.00
75821;DHT22;64454;51.984;9.838;2023-06-14T06:30:46;17.70;1.00
75821;DHT22;64454;51.984;9.838;2023-06-14T06:33:14;17.90;1.00
75821;DHT22;64454;51.984;9.838;2023-06-14T06:35:41;18.00;1.00
75821;DHT22;64454;51.984;9.838;2023-06-14T06:38:08;18.10;1.00
75821;DHT22;64454;51.984;9.838;2023-06-14T06:40:35;18.20;1.00
75821;DHT22;64454;51.984;9.838;2023-06-14T06:43:02;18.30;1.00
75821;DHT22;64454;51.984;9.838;2023-06-14T06:45:28;18.40;1.00
75821;DHT22;64454;51.984;9.838;2023-06-14T06:47:56;18.40;1.00
75821;DHT22;64454;51.984;9.838;2023-06-14T06:50:24;18.50;1.00
75821;DHT22;64454;51.984;9.838;2023-06-14T06:52:50;18.60;1.00
75821;DHT22;64454;51.984;9.838;2023-06-14T06:55:18;18.80;1.00
75821;DHT22;64454;51.984;9.838;2023-06-14T06:57:44;18.90;1.00
75821;DHT22;64454;51.984;9.838;2023-06-14T07:00:11;19.00;1.00
75821;DHT22;64454;51.984;9.838;2023-06-14T07:02:38;19.10;1.00
75821;DHT22;64454;51.984;9.838;2023-06-14T07:05:06;19.10;1.00
75821;DHT22;64454;51.984;9.838;2023-06-14T07:07:34;19.20;1.00
75821;DHT22;64454;51.984;9.838;2023-06-14T07:10:01;19.30;1.00
75821;DHT22;64454;51.984;9.838;2023-06-14T07:12:29;19.40;1.00
75821;DHT22;64454;51.984;9.838;2023-06-14T07:14:56;19.50;1.00
75821;DHT22;64454;51.984;9.838;2023-06-14T07:17:23;19.50;1.00
75821;DHT22;64454;51.984;9.838;2023-06-14T07:19:50;19.50;1.00
75821;DHT22;64454;51.984;9.838;2023-06-14T07:22:18;19.60;1.00
75821;DHT22;64454;51.984;9.838;2023-06-14T07:24:46;19.60;1.00
75821;DHT22;64454;51.984;9.838;2023-06-14T07:27:13;19.70;1.00
75821;DHT22;64454;51.984;9.838;2023-06-14T07:29:40;19.80;1.00
75821;DHT22;64454;51.984;9.838;2023-06-14T07:32:06;19.90;1.00
75821;DHT22;64454;51.984;9.838;2023-06-14T07:34:33;19.90;1.00
75821;DHT22;64454;51.984;9.838;2023-06-14T07:37:00;20.00;1.00
75821;DHT22;64454;51.984;9.838;2023-06-14T07:39:27;20.00;1.00
75821;DHT22;64454;51.984;9.838;2023-06-14T07:41:55;20.10;1.00
75821;DHT22;64454;51.984;9.838;2023-06-14T07:44:22;20.30;1.00
75821;DHT22;64454;51.984;9.838;2023-06-14T07:46:48;20.30;1.00
75821;DHT22;64454;51.984;9.838;2023-06-14T07:49:16;20.20;1.00
75821;DHT22;64454;51.984;9.838;2023-06-14T07:51:45;20.40;1.00
75821;DHT22;64454;51.984;9.838;2023-06-14T07:54:13;20.60;1.00
75821;DHT22;64454;51.984;9.838;2023-06-14T07:56:42;20.70;1.00
75821;DHT22;64454;51.984;9.838;2023-06-14T07:59:10;20.90;1.00
75821;DHT22;64454;51.984;9.838;2023-06-14T08:01:36;21.00;1.00
75821;DHT22;64454;51.984;9.838;2023-06-14T08:04:04;21.30;1.00
75821;DHT22;64454;51.984;9.838;2023-06-14T08:06:31;21.30;1.00
75821;DHT22;64454;51.984;9.838;2023-06-14T08:08:59;21.50;1.00
75821;DHT22;64454;51.984;9.838;2023-06-14T08:11:26;21.70;1.00
75821;DHT22;64454;51.984;9.838;2023-06-14T08:13:52;21.80;1.00
75821;DHT22;64454;51.984;9.838;2023-06-14T08:16:21;22.00;1.00
75821;DHT22;64454;51.984;9.838;2023-06-14T08:18:48;22.30;1.00
75821;DHT22;64454;51.984;9.838;2023-06-14T08:21:14;22.20;1.00
75821;DHT22;64454;51.984;9.838;2023-06-14T08:23:41;22.40;1.00
75821;DHT22;64454;51.984;9.838;2023-06-14T08:26:08;22.40;1.00
75821;DHT22;64454;51.984;9.838;2023-06-14T08:28:34;22.60;1.00
75821;DHT22;64454;51.984;9.838;2023-06-14T08:31:01;22.80;1.00
75821;DHT22;64454;51.984;9.838;2023-06-14T08:33:29;23.00;1.00
75821;DHT22;64454;51.984;9.838;2023-06-14T08:35:58;23.10;1.00
75821;DHT22;64454;51.984;9.838;2023-06-14T08:38:24;23.20;1.00
75821;DHT22;64454;51.984;9.838;2023-06-14T08:40:51;23.30;1.00
75821;DHT22;64454;51.984;9.838;2023-06-14T08:43:23;23.20;1.00
75821;DHT22;64454;51.984;9.838;2023-06-14T08:45:49;23.30;1.00
75821;DHT22;64454;51.984;9.838;2023-06-14T08:48:23;23.30;1.00
75821;DHT22;64454;51.984;9.838;2023-06-14T08:50:54;23.40;1.00
75821;DHT22;64454;51.984;9.838;2023-06-14T08:53:27;23.50;1.00
75821;DHT22;64454;51.984;9.838;2023-06-14T08:55:57;23.60;1.00
75821;DHT22;64454;51.984;9.838;2023-06-14T08:58:25;23.70;1.00
75821;DHT22;64454;51.984;9.838;2023-06-14T09:00:55;23.70;1.00
75821;DHT22;64454;51.984;9.838;2023-06-14T09:03:21;24.00;1.00
75821;DHT22;64454;51.984;9.838;2023-06-14T09:05:56;24.00;1.00
75821;DHT22;64454;51.984;9.838;2023-06-14T09:08:24;24.20;1.00
75821;DHT22;64454;51.984;9.838;2023-06-14T09:10:51;24.30;1.00
75821;DHT22;64454;51.984;9.838;2023-06-14T09:13:18;24.40;1.00
75821;DHT22;64454;51.984;9.838;2023-06-14T09:15:45;24.50;1.00
75821;DHT22;64454;51.984;9.838;2023-06-14T09:18:12;24.50;1.00
75821;DHT22;64454;51.984;9.838;2023-06-14T09:20:39;24.60;1.00
75821;DHT22;64454;51.984;9.838;2023-06-14T09:23:08;24.60;1.00
75821;DHT22;64454;51.984;9.838;2023-06-14T09:25:45;24.70;1.00
75821;DHT22;64454;51.984;9.838;2023-06-14T09:28:12;24.80;1.00
75821;DHT22;64454;51.984;9.838;2023-06-14T09:30:39;24.90;1.00
75821;DHT22;64454;51.984;9.838;2023-06-14T09:33:05;25.20;1.00
75821;DHT22;64454;51.984;9.838;2023-06-14T09:35:32;25.70;1.00
75821;DHT22;64454;51.984;9.838;2023-06-14T09:37:59;25.90;1.00
75821;DHT22;64454;51.984;9.838;2023-06-14T09:40:27;25.90;1.00
75821;DHT22;64454;51.984;9.838;2023-06-14T09:42:54;25.60;1.00
75821;DHT22;64454;51.984;9.838;2023-06-14T09:45:23;25.60;1.00
75821;DHT22;64454;51.984;9.838;2023-06-14T09:47:50;25.60;1.00
75821;DHT22;64454;51.984;9.838;2023-06-14T09:50:17;25.70;1.00
75821;DHT22;64454;51.984;9.838;2023-06-14T09:52:44;25.90;1.00
75821;DHT22;64454;51.984;9.838;2023-06-14T09:55:12;26.10;1.00
75821;DHT22;64454;51.984;9.838;2023-06-14T09:57:41;26.20;1.00
75821;DHT22;64454;51.984;9.838;2023-06-14T10:00:12;26.30;1.00
75821;DHT22;64454;51.984;9.838;2023-06-14T10:02:40;26.60;1.00
75821;DHT22;64454;51.984;9.838;2023-06-14T10:05:13;26.70;1.00
75821;DHT22;64454;51.984;9.838;2023-06-14T10:07:48;26.70;1.00
75821;DHT22;64454;51.984;9.838;2023-06-14T10:10:19;26.70;1.00
75821;DHT22;64454;51.984;9.838;2023-06-14T10:12:47;26.80;1.00
75821;DHT22;64454;51.984;9.838;2023-06-14T10:15:19;26.70;1.00
75821;DHT22;64454;51.984;9.838;2023-06-14T10:17:53;26.70;1.00
75821;DHT22;64454;51.984;9.838;2023-06-14T10:20:30;26.50;1.00
75821;DHT22;64454;51.984;9.838;2023-06-14T10:23:10;26.40;1.00
75821;DHT22;64454;51.984;9.838;2023-06-14T10:25:39;26.50;1.00
75821;DHT22;64454;51.984;9.838;2023-06-14T10:28:16;26.50;1.00
75821;DHT22;64454;51.984;9.838;2023-06-14T10:31:06;26.50;1.00
75821;DHT22;64454;51.984;9.838;2023-06-14T10:33:34;26.60;1.00
75821;DHT22;64454;51.984;9.838;2023-06-14T10:36:23;26.70;1.00
75821;DHT22;64454;51.984;9.838;2023-06-14T10:38:59;26.80;1.00
75821;DHT22;64454;51.984;9.838;2023-06-14T10:41:28;26.80;1.00
75821;DHT22;64454;51.984;9.838;2023-06-14T10:44:11;26.80;1.00
75821;DHT22;64454;51.984;9.838;2023-06-14T10:46:58;26.80;1.00
75821;DHT22;64454;51.984;9.838;2023-06-14T10:49:40;27.00;1.00
75821;DHT22;64454;51.984;9.838;2023-06-14T10:52:08;27.20;1.00
75821;DHT22;64454;51.984;9.838;2023-06-14T10:55:03;27.20;1.00
75821;DHT22;64454;51.984;9.838;2023-06-14T10:57:37;27.40;1.00
75821;DHT22;64454;51.984;9.838;2023-06-14T11:00:09;27.60;1.00
75821;DHT22;64454;51.984;9.838;2023-06-14T11:06:14;27.80;1.00
75821;DHT22;64454;51.984;9.838;2023-06-14T11:11:48;28.10;1.00
75821;DHT22;64454;51.984;9.838;2023-06-14T11:14:18;28.00;1.00
75821;DHT22;64454;51.984;9.838;2023-06-14T11:16:49;28.00;1.00
75821;DHT22;64454;51.984;9.838;2023-06-14T11:19:18;28.00;1.00
75821;DHT22;64454;51.984;9.838;2023-06-14T11:21:47;28.00;1.00
75821;DHT22;64454;51.984;9.838;2023-06-14T11:24:16;27.80;1.00
75821;DHT22;64454;51.984;9.838;2023-06-14T11:26:47;27.70;1.00
75821;DHT22;64454;51.984;9.838;2023-06-14T11:29:16;27.60;1.00
75821;DHT22;64454;51.984;9.838;2023-06-14T11:31:48;27.70;1.00
75821;DHT22;64454;51.984;9.838;2023-06-14T11:34:16;27.80;1.00
75821;DHT22;64454;51.984;9.838;2023-06-14T11:36:45;28.20;1.00
75821;DHT22;64454;51.984;9.838;2023-06-14T11:39:13;28.40;1.00
75821;DHT22;64454;51.984;9.838;2023-06-14T11:41:44;28.50;1.00
75821;DHT22;64454;51.984;9.838;2023-06-14T11:44:12;28.60;1.00
75821;DHT22;64454;51.984;9.838;2023-06-14T11:46:40;28.60;1.00
75821;DHT22;64454;51.984;9.838;2023-06-14T11:49:08;28.70;1.00
75821;DHT22;64454;51.984;9.838;2023-06-14T11:51:36;28.60;1.00
75821;DHT22;64454;51.984;9.838;2023-06-14T11:54:05;28.40;1.00
75821;DHT22;64454;51.984;9.838;2023-06-14T11:56:33;28.40;1.00
75821;DHT22;64454;51.984;9.838;2023-06-14T11:59:02;28.40;1.00
75821;DHT22;64454;51.984;9.838;2023-06-14T12:01:31;28.30;1.00
75821;DHT22;64454;51.984;9.838;2023-06-14T12:03:59;28.30;1.00
75821;DHT22;64454;51.984;9.838;2023-06-14T12:06:30;28.40;1.00
75821;DHT22;64454;51.984;9.838;2023-06-14T12:09:03;28.40;1.00
75821;DHT22;64454;51.984;9.838;2023-06-14T12:11:33;28.20;1.00
75821;DHT22;64454;51.984;9.838;2023-06-14T12:14:03;28.00;1.00
75821;DHT22;64454;51.984;9.838;2023-06-14T12:16:32;28.00;1.00
75821;DHT22;64454;51.984;9.838;2023-06-14T12:19:09;27.80;1.00
75821;DHT22;64454;51.984;9.838;2023-06-14T12:21:39;28.00;1.00
75821;DHT22;64454;51.984;9.838;2023-06-14T12:24:08;28.40;1.00
75821;DHT22;64454;51.984;9.838;2023-06-14T12:26:38;28.60;1.00
75821;DHT22;64454;51.984;9.838;2023-06-14T12:29:06;28.60;1.00
75821;DHT22;64454;51.984;9.838;2023-06-14T12:31:34;28.50;1.00
75821;DHT22;64454;51.984;9.838;2023-06-14T12:34:01;28.40;1.00
75821;DHT22;64454;51.984;9.838;2023-06-14T12:36:27;28.10;1.00
75821;DHT22;64454;51.984;9.838;2023-06-14T12:38:56;28.00;1.00
75821;DHT22;64454;51.984;9.838;2023-06-14T12:41:23;27.90;1.00
75821;DHT22;64454;51.984;9.838;2023-06-14T12:43:50;28.00;1.00
75821;DHT22;64454;51.984;9.838;2023-06-14T12:46:17;28.10;1.00
75821;DHT22;64454;51.984;9.838;2023-06-14T12:48:44;28.40;1.00
75821;DHT22;64454;51.984;9.838;2023-06-14T12:51:11;28.60;1.00
75821;DHT22;64454;51.984;9.838;2023-06-14T12:53:37;28.40;1.00
75821;DHT22;64454;51.984;9.838;2023-06-14T12:56:06;28.20;1.00
75821;DHT22;64454;51.984;9.838;2023-06-14T12:58:33;27.80;1.00
75821;DHT22;64454;51.984;9.838;2023-06-14T13:01:00;27.50;1.00
75821;DHT22;64454;51.984;9.838;2023-06-14T13:03:26;27.30;1.00
75821;DHT22;64454;51.984;9.838;2023-06-14T13:05:53;27.00;1.00
75821;DHT22;64454;51.984;9.838;2023-06-14T13:08:20;27.00;1.00
75821;DHT22;64454;51.984;9.838;2023-06-14T13:10:47;27.00;1.00
75821;DHT22;64454;51.984;9.838;2023-06-14T13:13:16;27.00;1.00
75821;DHT22;64454;51.984;9.838;2023-06-14T13:15:42;26.90;1.00
75821;DHT22;64454;51.984;9.838;2023-06-14T13:18:11;27.10;1.00
75821;DHT22;64454;51.984;9.838;2023-06-14T13:20:38;27.10;1.00
75821;DHT22;64454;51.984;9.838;2023-06-14T13:23:05;27.30;1.00
75821;DHT22;64454;51.984;9.838;2023-06-14T13:25:32;27.50;1.00
75821;DHT22;64454;51.984;9.838;2023-06-14T13:28:00;27.60;1.00
75821;DHT22;64454;51.984;9.838;2023-06-14T13:30:28;27.60;1.00
75821;DHT22;64454;51.984;9.838;2023-06-14T13:32:55;27.50;1.00
75821;DHT22;64454;51.984;9.838;2023-06-14T13:35:22;27.40;1.00
75821;DHT22;64454;51.984;9.838;2023-06-14T13:37:50;27.40;1.00
75821;DHT22;64454;51.984;9.838;2023-06-14T13:40:17;27.00;1.00
75821;DHT22;64454;51.984;9.838;2023-06-14T13:42:44;26.80;1.00
75821;DHT22;64454;51.984;9.838;2023-06-14T13:45:11;26.70;1.00
75821;DHT22;64454;51.984;9.838;2023-06-14T13:47:40;26.30;1.00
75821;DHT22;64454;51.984;9.838;2023-06-14T13:50:07;26.10;1.00
75821;DHT22;64454;51.984;9.838;2023-06-14T13:52:35;25.90;1.00
75821;DHT22;64454;51.984;9.838;2023-06-14T13:55:02;25.90;1.00
75821;DHT22;64454;51.984;9.838;2023-06-14T13:57:30;26.10;1.00
75821;DHT22;64454;51.984;9.838;2023-06-14T13:59:57;26.50;1.00
75821;DHT22;64454;51.984;9.838;2023-06-14T14:02:26;26.80;1.00
75821;DHT22;64454;51.984;9.838;2023-06-14T14:04:55;27.20;1.00
75821;DHT22;64454;51.984;9.838;2023-06-14T14:07:23;27.40;1.00
75821;DHT22;64454;51.984;9.838;2023-06-14T14:09:49;27.60;1.00
75821;DHT22;64454;51.984;9.838;2023-06-14T14:12:16;27.80;1.00
75821;DHT22;64454;51.984;9.838;2023-06-14T14:14:43;28.00;1.00
75821;DHT22;64454;51.984;9.838;2023-06-14T14:17:10;27.90;1.00
75821;DHT22;64454;51.984;9.838;2023-06-14T14:19:37;27.90;1.00
75821;DHT22;64454;51.984;9.838;2023-06-14T14:22:05;28.00;1.00
75821;DHT22;64454;51.984;9.838;2023-06-14T14:24:32;27.90;1.00
75821;DHT22;64454;51.984;9.838;2023-06-14T14:26:59;27.80;1.00
75821;DHT22;64454;51.984;9.838;2023-06-14T14:29:26;27.90;1.00
75821;DHT22;64454;51.984;9.838;2023-06-14T14:31:54;27.70;1.00
75821;DHT22;64454;51.984;9.838;2023-06-14T14:34:21;27.50;1.00
75821;DHT22;64454;51.984;9.838;2023-06-14T14:36:48;27.20;1.00
75821;DHT22;64454;51.984;9.838;2023-06-14T14:39:20;27.30;1.00
75821;DHT22;64454;51.984;9.838;2023-06-14T14:41:47;27.40;1.00
75821;DHT22;64454;51.984;9.838;2023-06-14T14:44:15;27.50;1.00
75821;DHT22;64454;51.984;9.838;2023-06-14T14:46:44;27.40;1.00
75821;DHT22;64454;51.984;9.838;2023-06-14T14:49:11;27.30;1.00
75821;DHT22;64454;51.984;9.838;2023-06-14T14:51:38;27.20;1.00
75821;DHT22;64454;51.984;9.838;2023-06-14T14:54:05;26.90;1.00
75821;DHT22;64454;51.984;9.838;2023-06-14T14:56:34;26.70;1.00
75821;DHT22;64454;51.984;9.838;2023-06-14T14:59:03;26.70;1.00
75821;DHT22;64454;51.984;9.838;2023-06-14T15:01:30;26.50;1.00
75821;DHT22;64454;51.984;9.838;2023-06-14T15:03:57;26.60;1.00
75821;DHT22;64454;51.984;9.838;2023-06-14T15:06:24;26.50;1.00
75821;DHT22;64454;51.984;9.838;2023-06-14T15:08:50;26.40;1.00
75821;DHT22;64454;51.984;9.838;2023-06-14T15:11:17;26.40;1.00
75821;DHT22;64454;51.984;9.838;2023-06-14T15:13:46;26.40;1.00
75821;DHT22;64454;51.984;9.838;2023-06-14T15:16:14;26.30;1.00
75821;DHT22;64454;51.984;9.838;2023-06-14T15:18:41;26.30;1.00
75821;DHT22;64454;51.984;9.838;2023-06-14T15:21:08;26.30;1.00
75821;DHT22;64454;51.984;9.838;2023-06-14T15:23:35;26.50;1.00
75821;DHT22;64454;51.984;9.838;2023-06-14T15:26:01;26.70;1.00
75821;DHT22;64454;51.984;9.838;2023-06-14T15:28:28;27.10;1.00
75821;DHT22;64454;51.984;9.838;2023-06-14T15:30:57;27.40;1.00
75821;DHT22;64454;51.984;9.838;2023-06-14T15:33:23;27.70;1.00
75821;DHT22;64454;51.984;9.838;2023-06-14T15:35:51;27.70;1.00
75821;DHT22;64454;51.984;9.838;2023-06-14T15:38:19;27.20;1.00
75821;DHT22;64454;51.984;9.838;2023-06-14T15:40:47;26.90;1.00
75821;DHT22;64454;51.984;9.838;2023-06-14T15:43:14;26.60;1.00
75821;DHT22;64454;51.984;9.838;2023-06-14T15:45:40;26.50;1.00
75821;DHT22;64454;51.984;9.838;2023-06-14T15:48:10;26.50;1.00
75821;DHT22;64454;51.984;9.838;2023-06-14T15:50:37;26.60;1.00
75821;DHT22;64454;51.984;9.838;2023-06-14T15:53:03;26.60;1.00
75821;DHT22;64454;51.984;9.838;2023-06-14T15:55:30;26.60;1.00
75821;DHT22;64454;51.984;9.838;2023-06-14T15:57:57;26.70;1.00